メインページ
METAR-TAF:

METAR-TAF

空港 :

アドルフォ・スアレス・マドリード=バラハス空港

マドリード, スペイン

緯度: 40-27N, 経度: 003-33W, 海抜: 609m

現時点の気象観測

当レポートは34分前の20:30(UTC)に作成
変向風 2kt
気温 8°C
湿度 81%
気圧 1023 hPa
視程10km以上
1,500メートル以下は雲なし、積乱雲なし

METAR: LEMD 112030Z VRB02KT CAVOK 08/05 Q1023 NOSIG

時間: 22:04 (21:04 UTC)

予報

当レポートは4時間4分前の17:00(UTC)に作成
予報は11日の 18時(UTC)から 12日の 24時(UTC)まで有効
変向風 4kt
視程10km以上
1,500メートル以下は雲なし、積乱雲なし
確率 40% :
12日の 03時(UTC)から 12日の 12時(UTC)まで一時的に
視程: 3000m
高度900ftの曇り
確率 30% :
12日の 06時(UTC)から 12日の 10時(UTC)まで一時的に
視程: 0500m
高度400ftの千切れ雲あり
確率 40% :
12日の 12時(UTC)から 12日の 18時(UTC)まで一時的に
南西の風 6kt、最大16ktの突風を伴う

TAF: LEMD 111700Z 1118/1224 VRB04KT CAVOK TX10/1215Z TN01/1205Z PROB40 TEMPO 1203/1212 3000 BR OVC009 PROB30 TEMPO 1206/1210 0500 FG BKN004 PROB40 TEMPO 1212/1218 22006G16KT

4,000以上の空港の気象観測と天気予報(METAR報とTAF報)

利用可能な観測所は地図上に黄色い丸と赤い丸で示す。

丸の上にカーソルを重ねると観測所名を参照できる。

次にクリックすると気象観測と天気予報を参照できる。

マップの切り替え:黒色「×」印の緑ボタンをクリックして拡大、「-」印の緑ボタンをクリックして縮小、緑色の三角印をクリックして隣りの地図に切り替え


METAR-TAF: